createdAt,value
2023-03-21T00:00:21.208Z,37.54
2023-03-21T00:03:24.179Z,37.35
2023-03-21T00:06:27.101Z,37.55
2023-03-21T00:09:29.861Z,37.51
2023-03-21T00:12:37.825Z,37.57
2023-03-21T00:16:01.920Z,37.37
2023-03-21T00:19:07.630Z,37.65
2023-03-21T00:22:10.424Z,37.50
2023-03-21T00:25:13.271Z,37.64
2023-03-21T00:28:17.494Z,37.67
2023-03-21T00:31:20.250Z,37.77
2023-03-21T00:34:31.910Z,38.05
2023-03-21T00:37:45.785Z,38.03
2023-03-21T00:40:49.404Z,38.00
2023-03-21T00:43:55.776Z,38.07
2023-03-21T00:47:07.549Z,38.30
2023-03-21T00:50:11.971Z,38.31
2023-03-21T00:53:15.433Z,38.21
2023-03-21T00:56:18.231Z,38.46
2023-03-21T00:59:22.431Z,38.29
2023-03-21T01:02:26.879Z,38.48
2023-03-21T01:05:45.439Z,38.42
2023-03-21T01:08:53.395Z,38.46
2023-03-21T01:11:56.347Z,38.53
2023-03-21T01:15:00.685Z,38.58
2023-03-21T01:18:03.427Z,38.60
2023-03-21T01:21:07.959Z,38.50
2023-03-21T01:24:11.268Z,38.52
2023-03-21T01:27:14.037Z,38.56
2023-03-21T01:30:22.716Z,38.74
2023-03-21T01:33:26.580Z,38.66
2023-03-21T01:36:29.682Z,38.70
2023-03-21T01:39:35.006Z,38.74
2023-03-21T01:42:37.815Z,38.67
2023-03-21T01:45:59.158Z,38.87
2023-03-21T01:49:04.889Z,38.81
2023-03-21T01:52:15.277Z,38.71
2023-03-21T01:55:21.874Z,38.86
2023-03-21T01:58:25.366Z,39.02
2023-03-21T02:01:28.372Z,38.89
2023-03-21T02:04:32.625Z,38.95
2023-03-21T02:07:37.505Z,38.81
2023-03-21T02:10:40.961Z,38.94
2023-03-21T02:13:43.722Z,38.93
2023-03-21T02:16:53.134Z,38.97
2023-03-21T02:20:22.270Z,39.00
2023-03-21T02:23:48.057Z,39.03
2023-03-21T02:27:05.167Z,39.07
2023-03-21T02:30:29.404Z,38.95
2023-03-21T02:33:42.557Z,38.77
2023-03-21T02:36:51.964Z,38.81
2023-03-21T02:39:57.189Z,38.76
2023-03-21T02:43:04.280Z,38.84
2023-03-21T02:46:11.386Z,38.84
2023-03-21T02:49:18.729Z,38.84
2023-03-21T02:52:37.304Z,38.86
2023-03-21T02:55:43.112Z,38.79
2023-03-21T02:58:46.573Z,38.83
2023-03-21T03:01:51.380Z,38.85
2023-03-21T03:04:54.393Z,38.92
2023-03-21T03:08:03.873Z,38.84
2023-03-21T03:11:15.589Z,38.83
2023-03-21T03:14:49.936Z,38.90
2023-03-21T03:17:55.617Z,38.92
2023-03-21T03:21:02.096Z,38.93
2023-03-21T03:24:09.649Z,38.97
2023-03-21T03:27:15.762Z,39.00
2023-03-21T03:30:18.867Z,39.07
2023-03-21T03:33:23.820Z,38.88
2023-03-21T03:36:33.132Z,38.80
2023-03-21T03:39:41.522Z,38.99
2023-03-21T03:42:47.485Z,38.86
2023-03-21T03:45:51.265Z,39.00
2023-03-21T03:48:56.153Z,38.87
2023-03-21T03:52:00.921Z,38.90
2023-03-21T03:55:06.135Z,38.76
2023-03-21T03:58:19.852Z,38.74
2023-03-21T04:01:24.921Z,39.13
2023-03-21T04:04:29.358Z,38.81
2023-03-21T04:07:32.228Z,38.59
2023-03-21T04:10:36.742Z,38.53
2023-03-21T04:13:39.632Z,38.28
2023-03-21T04:16:42.519Z,38.23
2023-03-21T04:19:45.583Z,38.08
2023-03-21T04:22:48.745Z,37.76
2023-03-21T04:25:56.773Z,37.77
2023-03-21T04:29:01.219Z,37.49
2023-03-21T04:32:04.017Z,37.66
2023-03-21T04:35:08.447Z,37.43
2023-03-21T04:38:11.281Z,37.61
2023-03-21T04:41:15.468Z,37.57
2023-03-21T04:44:18.786Z,37.45
2023-03-21T04:47:22.042Z,37.38
2023-03-21T04:50:24.918Z,37.45
2023-03-21T04:53:27.677Z,37.31
2023-03-21T04:56:32.533Z,37.45
2023-03-21T04:59:35.654Z,37.25
2023-03-21T05:02:38.556Z,37.34
2023-03-21T05:05:41.549Z,37.32
2023-03-21T05:08:44.442Z,37.29
2023-03-21T05:11:49.069Z,37.53
2023-03-21T05:14:51.895Z,37.45
2023-03-21T05:17:55.205Z,37.52
2023-03-21T05:20:58.961Z,37.81
2023-03-21T05:24:03.714Z,37.77
2023-03-21T05:27:08.476Z,37.70
2023-03-21T05:30:21.622Z,37.95
2023-03-21T05:33:24.377Z,37.87
2023-03-21T05:36:27.137Z,37.85
2023-03-21T05:39:29.958Z,37.94
2023-03-21T05:42:34.148Z,38.24
2023-03-21T05:45:37.293Z,38.13
2023-03-21T05:48:40.702Z,38.16
2023-03-21T05:51:45.041Z,38.24
2023-03-21T05:54:48.840Z,38.23
2023-03-21T05:57:52.952Z,38.19
2023-03-21T06:00:55.945Z,38.27
2023-03-21T06:03:58.789Z,38.16
2023-03-21T06:07:01.653Z,38.36
2023-03-21T06:10:04.467Z,38.29
2023-03-21T06:13:08.631Z,38.21
2023-03-21T06:16:11.426Z,38.33
2023-03-21T06:19:14.342Z,38.15
2023-03-21T06:22:17.300Z,38.35
2023-03-21T06:25:21.494Z,38.33
2023-03-21T06:28:25.856Z,38.26
2023-03-21T06:31:34.274Z,38.24
2023-03-21T06:34:39.294Z,38.44
2023-03-21T06:37:43.071Z,38.38
2023-03-21T06:40:46.755Z,38.41
2023-03-21T06:43:51.094Z,38.31
2023-03-21T06:46:54.247Z,38.42
2023-03-21T06:49:57.073Z,38.42
2023-03-21T06:52:59.946Z,38.36
2023-03-21T06:56:02.892Z,38.49
2023-03-21T06:59:08.525Z,38.38
2023-03-21T07:02:12.212Z,38.47
2023-03-21T07:05:15.474Z,38.46
2023-03-21T07:08:18.739Z,38.31
2023-03-21T07:11:22.101Z,38.67
2023-03-21T07:14:26.480Z,38.60
2023-03-21T07:17:29.296Z,38.55
2023-03-21T07:20:32.172Z,38.55
2023-03-21T07:23:35.057Z,38.48
2023-03-21T07:26:37.812Z,38.40
2023-03-21T07:29:42.184Z,38.45
2023-03-21T07:32:45.732Z,38.53
2023-03-21T07:35:48.532Z,38.41
2023-03-21T07:38:51.517Z,38.42
2023-03-21T07:41:55.693Z,38.49
2023-03-21T07:45:00.040Z,38.69
2023-03-21T07:48:03.180Z,38.44
2023-03-21T07:51:06.670Z,38.49
2023-03-21T07:54:09.488Z,38.49
2023-03-21T07:57:13.670Z,38.22
2023-03-21T08:00:23.171Z,38.44
2023-03-21T08:03:29.537Z,38.48
2023-03-21T08:06:32.691Z,38.51
2023-03-21T08:09:36.334Z,38.56
2023-03-21T08:12:39.209Z,38.49
2023-03-21T08:15:43.425Z,38.31
2023-03-21T08:18:47.177Z,38.49
2023-03-21T08:21:51.160Z,38.43
2023-03-21T08:24:53.938Z,38.54
2023-03-21T08:27:56.697Z,38.47
2023-03-21T08:31:00.904Z,38.56
2023-03-21T08:34:03.876Z,38.58
2023-03-21T08:37:07.164Z,38.46
2023-03-21T08:40:13.409Z,38.47
2023-03-21T08:43:16.195Z,38.59
2023-03-21T08:46:20.408Z,38.59
2023-03-21T08:49:23.165Z,38.59
2023-03-21T08:52:25.969Z,38.53
2023-03-21T08:55:28.741Z,38.72
2023-03-21T08:58:32.588Z,38.39
2023-03-21T09:01:37.150Z,38.47
2023-03-21T09:04:40.642Z,38.44
2023-03-21T09:07:44.056Z,38.40
2023-03-21T09:10:46.856Z,38.60
2023-03-21T09:13:49.643Z,38.53
2023-03-21T09:16:53.805Z,38.61
2023-03-21T09:19:57.375Z,38.47
2023-03-21T09:23:01.961Z,38.42
2023-03-21T09:26:05.952Z,38.41
2023-03-21T09:29:08.987Z,38.32
2023-03-21T09:32:13.520Z,38.60
2023-03-21T09:35:18.008Z,38.45
2023-03-21T09:38:37.086Z,38.45
2023-03-21T09:41:54.254Z,38.39
2023-03-21T09:45:02.468Z,38.21
2023-03-21T09:48:10.765Z,38.07
2023-03-21T09:51:18.106Z,38.03
2023-03-21T09:54:25.078Z,37.82
2023-03-21T09:57:33.193Z,37.64
2023-03-21T10:00:38.272Z,37.61
2023-03-21T10:03:44.036Z,37.41
2023-03-21T10:06:50.885Z,37.27
2023-03-21T10:09:54.755Z,37.04
2023-03-21T10:12:58.228Z,37.12
2023-03-21T10:16:01.842Z,37.02
2023-03-21T10:19:11.306Z,36.89
2023-03-21T10:22:14.141Z,36.84
2023-03-21T10:25:18.145Z,36.76
2023-03-21T10:28:22.476Z,36.93
2023-03-21T10:31:26.513Z,36.54
2023-03-21T10:34:33.733Z,36.65
2023-03-21T10:37:36.583Z,36.85
2023-03-21T10:40:39.372Z,36.94
2023-03-21T10:43:43.032Z,38.32
2023-03-21T10:46:52.481Z,38.70
2023-03-21T10:50:07.341Z,37.25
2023-03-21T10:53:16.745Z,38.69
2023-03-21T10:56:19.996Z,39.30
2023-03-21T10:59:23.393Z,39.26
2023-03-21T11:02:27.302Z,39.30
2023-03-21T11:05:37.323Z,39.87
2023-03-21T11:08:41.330Z,39.70
2023-03-21T11:11:52.391Z,40.30
2023-03-21T11:14:55.193Z,40.10
2023-03-21T11:17:58.451Z,40.45
2023-03-21T11:21:05.924Z,40.08
2023-03-21T11:24:14.935Z,40.62
2023-03-21T11:27:17.786Z,40.77
2023-03-21T11:30:22.251Z,40.30
2023-03-21T11:33:28.283Z,39.83
2023-03-21T11:36:38.937Z,39.63
2023-03-21T11:39:43.949Z,39.73
2023-03-21T11:42:51.970Z,40.24
2023-03-21T11:45:58.725Z,39.48
2023-03-21T11:49:02.577Z,39.42
2023-03-21T11:52:13.716Z,39.62
2023-03-21T11:55:31.616Z,40.27
2023-03-21T11:58:38.645Z,40.74
2023-03-21T12:01:45.098Z,40.73
2023-03-21T12:04:52.771Z,40.21
2023-03-21T12:08:01.691Z,40.36
2023-03-21T12:11:09.365Z,39.65
2023-03-21T12:14:18.448Z,39.77
2023-03-21T12:17:28.686Z,39.94
2023-03-21T12:20:38.402Z,39.80
2023-03-21T12:23:47.929Z,39.81
2023-03-21T12:26:54.039Z,39.72
2023-03-21T12:30:05.184Z,39.47
2023-03-21T12:33:14.884Z,39.42
2023-03-21T12:36:23.231Z,39.42
2023-03-21T12:39:30.878Z,39.36
2023-03-21T12:42:45.368Z,39.29
2023-03-21T12:45:50.702Z,38.98
2023-03-21T12:48:55.225Z,38.99
2023-03-21T12:52:01.210Z,39.04
2023-03-21T12:55:08.938Z,39.10
2023-03-21T12:58:18.332Z,39.07
2023-03-21T13:01:23.042Z,39.06
2023-03-21T13:04:38.195Z,38.99
2023-03-21T13:07:43.196Z,38.94
2023-03-21T13:10:47.811Z,39.03
2023-03-21T13:13:53.510Z,39.07
2023-03-21T13:17:00.930Z,38.97
2023-03-21T13:20:09.716Z,39.12
2023-03-21T13:23:13.589Z,39.07
2023-03-21T13:26:17.955Z,39.11
2023-03-21T13:29:25.637Z,38.80
2023-03-21T13:32:30.863Z,38.71
2023-03-21T13:35:39.070Z,38.38
2023-03-21T13:38:43.383Z,38.38
2023-03-21T13:41:49.039Z,38.28
2023-03-21T13:44:54.291Z,38.17
2023-03-21T13:47:58.203Z,37.92
2023-03-21T13:51:02.518Z,37.68
2023-03-21T13:54:06.663Z,37.84
2023-03-21T13:57:22.035Z,37.54
2023-03-21T14:00:30.184Z,37.83
2023-03-21T14:03:35.582Z,37.93
2023-03-21T14:06:40.549Z,37.84
2023-03-21T14:09:45.799Z,37.81
2023-03-21T14:12:50.541Z,37.68
2023-03-21T14:15:56.715Z,37.43
2023-03-21T14:19:01.934Z,37.80
2023-03-21T14:22:05.222Z,37.58
2023-03-21T14:25:09.704Z,37.71
2023-03-21T14:28:18.380Z,37.50
2023-03-21T14:31:22.268Z,37.57
2023-03-21T14:34:26.180Z,37.53
2023-03-21T14:37:30.527Z,37.39
2023-03-21T14:40:33.416Z,37.56
2023-03-21T14:43:37.541Z,38.06
2023-03-21T14:46:41.948Z,38.08
2023-03-21T14:49:45.010Z,37.68
2023-03-21T14:52:47.924Z,38.22
2023-03-21T14:55:52.866Z,38.04
2023-03-21T14:58:57.442Z,38.11
2023-03-21T15:02:02.768Z,38.17
2023-03-21T15:05:11.019Z,37.90
2023-03-21T15:08:15.593Z,37.90
2023-03-21T15:11:18.517Z,38.63
2023-03-21T15:14:38.697Z,38.17
2023-03-21T15:17:41.484Z,38.23
2023-03-21T15:20:46.914Z,38.15
2023-03-21T15:23:52.047Z,38.56
2023-03-21T15:26:58.475Z,38.32
2023-03-21T15:30:02.616Z,38.54
2023-03-21T15:33:10.157Z,38.11
2023-03-21T15:36:13.254Z,38.19
2023-03-21T15:39:17.019Z,38.38
2023-03-21T15:42:28.312Z,38.09
2023-03-21T15:45:32.504Z,38.59
2023-03-21T15:48:35.532Z,38.35
2023-03-21T15:51:38.427Z,38.52
2023-03-21T15:54:44.006Z,38.44
2023-03-21T15:57:47.917Z,38.63
2023-03-21T16:00:55.266Z,38.62
2023-03-21T16:03:59.193Z,38.61
2023-03-21T16:07:03.783Z,38.65
2023-03-21T16:10:06.601Z,38.56
2023-03-21T16:13:12.275Z,38.67
2023-03-21T16:16:18.747Z,38.43
2023-03-21T16:19:22.093Z,38.35
2023-03-21T16:22:24.825Z,38.62
2023-03-21T16:25:27.751Z,38.82
2023-03-21T16:28:31.588Z,38.78
2023-03-21T16:31:36.870Z,38.65
2023-03-21T16:34:42.154Z,38.76
2023-03-21T16:37:45.162Z,38.37
2023-03-21T16:40:47.929Z,38.24
2023-03-21T16:43:50.729Z,37.94
2023-03-21T16:46:54.845Z,38.05
2023-03-21T16:49:57.622Z,37.90
2023-03-21T16:53:00.450Z,37.80
2023-03-21T16:56:05.295Z,37.71
2023-03-21T16:59:08.149Z,37.93
2023-03-21T17:02:15.220Z,37.53
2023-03-21T17:05:18.329Z,37.98
2023-03-21T17:08:21.948Z,37.81
2023-03-21T17:11:25.626Z,37.70
2023-03-21T17:14:28.424Z,37.67
2023-03-21T17:17:32.525Z,37.65
2023-03-21T17:20:37.868Z,37.50
2023-03-21T17:23:40.959Z,37.64
2023-03-21T17:26:43.713Z,37.52
2023-03-21T17:29:46.568Z,37.46
2023-03-21T17:32:50.942Z,37.65
2023-03-21T17:35:53.871Z,37.48
2023-03-21T17:38:57.944Z,37.63
2023-03-21T17:42:00.715Z,37.44
2023-03-21T17:45:03.510Z,37.43
2023-03-21T17:48:07.664Z,37.19
2023-03-21T17:51:12.842Z,37.40
2023-03-21T17:54:15.673Z,37.27
2023-03-21T17:57:18.473Z,37.69
2023-03-21T18:00:23.030Z,37.61
2023-03-21T18:03:27.244Z,37.93
2023-03-21T18:06:30.044Z,38.00
2023-03-21T18:09:33.225Z,37.71
2023-03-21T18:12:36.006Z,37.85
2023-03-21T18:15:44.045Z,37.99
2023-03-21T18:18:48.667Z,37.77
2023-03-21T18:21:51.441Z,37.88
2023-03-21T18:24:55.997Z,38.08
2023-03-21T18:28:10.433Z,38.07
2023-03-21T18:31:19.884Z,38.11
2023-03-21T18:34:24.302Z,38.12
2023-03-21T18:37:27.628Z,38.25
2023-03-21T18:40:30.811Z,38.39
2023-03-21T18:46:59.091Z,38.44
2023-03-21T18:50:14.166Z,38.65
2023-03-21T18:53:17.652Z,38.65
2023-03-21T18:57:13.217Z,38.63
2023-03-21T18:59:46.539Z,38.64
2023-03-21T19:03:04.230Z,38.64
2023-03-21T19:06:11.709Z,38.70
2023-03-21T19:09:15.006Z,38.73
2023-03-21T19:12:17.792Z,38.66
2023-03-21T19:15:21.792Z,38.92
2023-03-21T19:18:54.101Z,38.80
2023-03-21T19:21:51.227Z,38.85
2023-03-21T19:24:54.108Z,38.64
2023-03-21T19:27:57.085Z,38.94
2023-03-21T19:31:04.273Z,38.92
2023-03-21T19:34:07.636Z,39.15
2023-03-21T19:37:11.761Z,38.95
2023-03-21T19:40:15.026Z,38.96
2023-03-21T19:43:32.311Z,39.01
2023-03-21T19:46:36.988Z,39.08
2023-03-21T19:50:27.280Z,39.02
2023-03-21T19:53:04.907Z,39.00
2023-03-21T19:56:20.353Z,39.01
2023-03-21T19:59:24.990Z,39.00
2023-03-21T20:05:47.898Z,39.14
2023-03-21T20:12:16.293Z,39.21
2023-03-21T20:15:21.795Z,39.18
2023-03-21T20:18:25.756Z,39.26
2023-03-21T20:21:33.837Z,39.24
2023-03-21T20:24:44.466Z,39.08
2023-03-21T20:27:47.395Z,39.18
2023-03-21T20:30:51.582Z,39.09
2023-03-21T20:33:54.301Z,38.96
2023-03-21T20:36:58.148Z,38.97
2023-03-21T20:40:02.407Z,39.12
2023-03-21T20:43:40.092Z,39.06
2023-03-21T20:46:29.094Z,39.12
2023-03-21T20:49:32.376Z,39.02
2023-03-21T20:53:04.914Z,39.01
2023-03-21T20:56:02.368Z,38.95
2023-03-21T20:59:17.409Z,39.11
2023-03-21T21:02:26.600Z,39.14
2023-03-21T21:05:34.366Z,39.18
2023-03-21T21:08:38.241Z,39.28
2023-03-21T21:15:07.186Z,39.28
2023-03-21T21:18:10.031Z,39.18
2023-03-21T21:21:14.079Z,38.64
2023-03-21T21:24:16.839Z,38.62
2023-03-21T21:27:21.123Z,38.16
2023-03-21T21:30:24.021Z,38.08
2023-03-21T21:33:29.278Z,37.93
2023-03-21T21:36:32.091Z,37.90
2023-03-21T21:39:38.034Z,37.82
2023-03-21T21:42:43.393Z,37.67
2023-03-21T21:45:46.668Z,37.66
2023-03-21T21:48:49.616Z,37.71
2023-03-21T21:51:52.402Z,37.72
2023-03-21T21:54:55.110Z,37.51
2023-03-21T21:57:59.212Z,37.62
2023-03-21T22:01:02.312Z,37.44
2023-03-21T22:04:08.402Z,37.45
2023-03-21T22:07:14.492Z,37.60
2023-03-21T22:10:17.427Z,37.41
2023-03-21T22:13:21.647Z,37.41
2023-03-21T22:16:24.525Z,37.36
2023-03-21T22:19:27.753Z,37.36
2023-03-21T22:22:30.894Z,37.36
2023-03-21T22:25:34.238Z,37.37
2023-03-21T22:28:40.547Z,37.79
2023-03-21T22:31:45.410Z,37.56
2023-03-21T22:34:48.159Z,37.36
2023-03-21T22:37:51.279Z,37.51
2023-03-21T22:40:54.672Z,37.45
2023-03-21T22:43:58.822Z,37.13
2023-03-21T22:47:01.729Z,37.70
2023-03-21T22:50:04.737Z,37.48
2023-03-21T22:53:07.565Z,37.70
2023-03-21T22:56:11.151Z,37.48
2023-03-21T22:59:15.597Z,37.81
2023-03-21T23:02:18.354Z,37.65
2023-03-21T23:05:21.202Z,37.78
2023-03-21T23:08:23.953Z,37.64
2023-03-21T23:11:26.836Z,37.35
2023-03-21T23:14:31.078Z,37.90
2023-03-21T23:17:35.644Z,36.15
2023-03-21T23:20:38.639Z,42.94
2023-03-21T23:23:41.868Z,37.88
2023-03-21T23:26:44.639Z,37.55
2023-03-21T23:29:49.091Z,37.53
2023-03-21T23:32:51.909Z,37.52
2023-03-21T23:35:54.694Z,37.78
2023-03-21T23:38:57.585Z,37.77
2023-03-21T23:42:00.436Z,37.68
2023-03-21T23:45:04.767Z,37.85
2023-03-21T23:48:07.842Z,38.05
2023-03-21T23:51:10.729Z,38.12
2023-03-21T23:54:13.913Z,37.97
2023-03-21T23:57:17.289Z,38.30
